<?xml version="1.0" encoding="UTF-8" standalone="no" ?>
<gpx xmlns="http://www.topografix.com/GPX/1/1" xmlns:xsi="http://www.w3.org/2001/XMLSchema-instance" xsi:schemaLocation="http://www.topografix.com/GPX/1/1 http://www.topografix.com/GPX/1/1/gpx.xsd" version="1.1" creator="VisuGPX - https://www.visugpx.com">
  <metadata>
    <name>GEO Le Bois des Jarries</name>
    <desc><![CDATA[File with points/tracks from Locus Map/3.38.7]]></desc>
  </metadata>
  <trk>
    <name><![CDATA[2019-07-19 10:14:51]]></name>
    <trkseg>
      <trkpt lat="46.86743" lon="-0.89586">
        <ele>207.96</ele>
        <time>2019-07-19T08:14:54.000Z</time>
      </trkpt>
      <trkpt lat="46.86734" lon="-0.89589">
        <ele>202.94</ele>
        <time>2019-07-19T08:16:17.000Z</time>
      </trkpt>
      <trkpt lat="46.86726" lon="-0.89596">
        <ele>202.9</ele>
        <time>2019-07-19T08:16:27.000Z</time>
      </trkpt>
      <trkpt lat="46.86717" lon="-0.89608">
        <ele>202.91</ele>
        <time>2019-07-19T08:16:37.000Z</time>
      </trkpt>
      <trkpt lat="46.86709" lon="-0.8962">
        <ele>204.92</ele>
        <time>2019-07-19T08:16:47.000Z</time>
      </trkpt>
      <trkpt lat="46.867" lon="-0.89633">
        <ele>204.92</ele>
        <time>2019-07-19T08:16:57.000Z</time>
      </trkpt>
      <trkpt lat="46.86692" lon="-0.89646">
        <ele>203.92</ele>
        <time>2019-07-19T08:17:07.000Z</time>
      </trkpt>
      <trkpt lat="46.86683" lon="-0.89659">
        <ele>204.15</ele>
        <time>2019-07-19T08:17:17.000Z</time>
      </trkpt>
      <trkpt lat="46.86674" lon="-0.89672">
        <ele>203.92</ele>
        <time>2019-07-19T08:17:27.000Z</time>
      </trkpt>
      <trkpt lat="46.86665" lon="-0.89684">
        <ele>203.17</ele>
        <time>2019-07-19T08:17:37.000Z</time>
      </trkpt>
      <trkpt lat="46.86654" lon="-0.89696">
        <ele>202.92</ele>
        <time>2019-07-19T08:17:47.000Z</time>
      </trkpt>
      <trkpt lat="46.86643" lon="-0.89708">
        <ele>201.92</ele>
        <time>2019-07-19T08:17:57.000Z</time>
      </trkpt>
      <trkpt lat="46.86635" lon="-0.89723">
        <ele>200.92</ele>
        <time>2019-07-19T08:18:07.000Z</time>
      </trkpt>
      <trkpt lat="46.86626" lon="-0.89737">
        <ele>199.93</ele>
        <time>2019-07-19T08:18:17.000Z</time>
      </trkpt>
      <trkpt lat="46.86619" lon="-0.89753">
        <ele>198.93</ele>
        <time>2019-07-19T08:18:27.000Z</time>
      </trkpt>
      <trkpt lat="46.86611" lon="-0.89769">
        <ele>197.92</ele>
        <time>2019-07-19T08:18:37.000Z</time>
      </trkpt>
      <trkpt lat="46.86605" lon="-0.89786">
        <ele>197.92</ele>
        <time>2019-07-19T08:18:47.000Z</time>
      </trkpt>
      <trkpt lat="46.866" lon="-0.89803">
        <ele>197.92</ele>
        <time>2019-07-19T08:18:57.000Z</time>
      </trkpt>
      <trkpt lat="46.86596" lon="-0.89821">
        <ele>197.92</ele>
        <time>2019-07-19T08:19:07.000Z</time>
      </trkpt>
      <trkpt lat="46.86592" lon="-0.89837">
        <ele>198.9</ele>
        <time>2019-07-19T08:19:17.000Z</time>
      </trkpt>
      <trkpt lat="46.86585" lon="-0.89853">
        <ele>198.92</ele>
        <time>2019-07-19T08:19:27.000Z</time>
      </trkpt>
      <trkpt lat="46.86582" lon="-0.89868">
        <ele>198.67</ele>
        <time>2019-07-19T08:19:37.000Z</time>
      </trkpt>
      <trkpt lat="46.86573" lon="-0.89869">
        <ele>196.92</ele>
        <time>2019-07-19T08:21:35.000Z</time>
      </trkpt>
      <trkpt lat="46.86561" lon="-0.89869">
        <ele>196.92</ele>
        <time>2019-07-19T08:21:45.000Z</time>
      </trkpt>
      <trkpt lat="46.86548" lon="-0.89866">
        <ele>195.92</ele>
        <time>2019-07-19T08:21:55.000Z</time>
      </trkpt>
      <trkpt lat="46.86535" lon="-0.89862">
        <ele>194.92</ele>
        <time>2019-07-19T08:22:05.000Z</time>
      </trkpt>
      <trkpt lat="46.86524" lon="-0.89856">
        <ele>195.67</ele>
        <time>2019-07-19T08:22:15.000Z</time>
      </trkpt>
      <trkpt lat="46.86513" lon="-0.89852">
        <ele>196.86</ele>
        <time>2019-07-19T08:22:25.000Z</time>
      </trkpt>
      <trkpt lat="46.86503" lon="-0.89851">
        <ele>195.93</ele>
        <time>2019-07-19T08:22:35.000Z</time>
      </trkpt>
      <trkpt lat="46.86493" lon="-0.89847">
        <ele>197.73</ele>
        <time>2019-07-19T08:22:45.000Z</time>
      </trkpt>
      <trkpt lat="46.8648" lon="-0.89845">
        <ele>198.93</ele>
        <time>2019-07-19T08:22:55.000Z</time>
      </trkpt>
      <trkpt lat="46.86468" lon="-0.89842">
        <ele>198.67</ele>
        <time>2019-07-19T08:23:05.000Z</time>
      </trkpt>
      <trkpt lat="46.86453" lon="-0.89838">
        <ele>196.92</ele>
        <time>2019-07-19T08:23:15.000Z</time>
      </trkpt>
      <trkpt lat="46.86441" lon="-0.89834">
        <ele>198.91</ele>
        <time>2019-07-19T08:23:25.000Z</time>
      </trkpt>
      <trkpt lat="46.86426" lon="-0.89826">
        <ele>197.92</ele>
        <time>2019-07-19T08:23:35.000Z</time>
      </trkpt>
      <trkpt lat="46.86412" lon="-0.89822">
        <ele>196.93</ele>
        <time>2019-07-19T08:23:45.000Z</time>
      </trkpt>
      <trkpt lat="46.864" lon="-0.89821">
        <ele>195.93</ele>
        <time>2019-07-19T08:23:55.000Z</time>
      </trkpt>
      <trkpt lat="46.8639" lon="-0.89819">
        <ele>195.92</ele>
        <time>2019-07-19T08:24:08.000Z</time>
      </trkpt>
      <trkpt lat="46.86377" lon="-0.89819">
        <ele>195.92</ele>
        <time>2019-07-19T08:24:18.000Z</time>
      </trkpt>
      <trkpt lat="46.86364" lon="-0.89818">
        <ele>194.92</ele>
        <time>2019-07-19T08:24:28.000Z</time>
      </trkpt>
      <trkpt lat="46.86351" lon="-0.89813">
        <ele>193.92</ele>
        <time>2019-07-19T08:24:38.000Z</time>
      </trkpt>
      <trkpt lat="46.8634" lon="-0.89806">
        <ele>194.92</ele>
        <time>2019-07-19T08:24:48.000Z</time>
      </trkpt>
      <trkpt lat="46.86328" lon="-0.89801">
        <ele>194.92</ele>
        <time>2019-07-19T08:24:58.000Z</time>
      </trkpt>
      <trkpt lat="46.86316" lon="-0.89798">
        <ele>193.92</ele>
        <time>2019-07-19T08:25:08.000Z</time>
      </trkpt>
      <trkpt lat="46.86305" lon="-0.89796">
        <ele>193.17</ele>
        <time>2019-07-19T08:25:18.000Z</time>
      </trkpt>
      <trkpt lat="46.86294" lon="-0.89788">
        <ele>193.92</ele>
        <time>2019-07-19T08:25:28.000Z</time>
      </trkpt>
      <trkpt lat="46.86288" lon="-0.89779">
        <ele>199.36</ele>
        <time>2019-07-19T08:25:39.000Z</time>
      </trkpt>
      <trkpt lat="46.8628" lon="-0.89771">
        <ele>203.02</ele>
        <time>2019-07-19T08:26:39.000Z</time>
      </trkpt>
      <trkpt lat="46.86271" lon="-0.89768">
        <ele>204.84</ele>
        <time>2019-07-19T08:28:49.000Z</time>
      </trkpt>
      <trkpt lat="46.86262" lon="-0.89764">
        <ele>209.8</ele>
        <time>2019-07-19T08:29:22.000Z</time>
      </trkpt>
      <trkpt lat="46.86253" lon="-0.89757">
        <ele>210.91</ele>
        <time>2019-07-19T08:29:32.000Z</time>
      </trkpt>
      <trkpt lat="46.86242" lon="-0.8975">
        <ele>211.1</ele>
        <time>2019-07-19T08:29:42.000Z</time>
      </trkpt>
      <trkpt lat="46.86234" lon="-0.89743">
        <ele>213.66</ele>
        <time>2019-07-19T08:29:55.000Z</time>
      </trkpt>
      <trkpt lat="46.86223" lon="-0.89739">
        <ele>215.92</ele>
        <time>2019-07-19T08:30:05.000Z</time>
      </trkpt>
      <trkpt lat="46.86214" lon="-0.89738">
        <ele>220.61</ele>
        <time>2019-07-19T08:30:15.000Z</time>
      </trkpt>
      <trkpt lat="46.86205" lon="-0.89732">
        <ele>224.08</ele>
        <time>2019-07-19T08:30:26.000Z</time>
      </trkpt>
      <trkpt lat="46.86196" lon="-0.89726">
        <ele>227.73</ele>
        <time>2019-07-19T08:30:38.000Z</time>
      </trkpt>
      <trkpt lat="46.86187" lon="-0.89722">
        <ele>231.75</ele>
        <time>2019-07-19T08:30:48.000Z</time>
      </trkpt>
      <trkpt lat="46.86177" lon="-0.89717">
        <ele>231.48</ele>
        <time>2019-07-19T08:31:02.000Z</time>
      </trkpt>
      <trkpt lat="46.86169" lon="-0.89712">
        <ele>236.62</ele>
        <time>2019-07-19T08:31:15.000Z</time>
      </trkpt>
      <trkpt lat="46.8616" lon="-0.89706">
        <ele>234.92</ele>
        <time>2019-07-19T08:31:28.000Z</time>
      </trkpt>
      <trkpt lat="46.86151" lon="-0.89702">
        <ele>235.91</ele>
        <time>2019-07-19T08:31:40.000Z</time>
      </trkpt>
      <trkpt lat="46.86142" lon="-0.89697">
        <ele>237.21</ele>
        <time>2019-07-19T08:31:51.000Z</time>
      </trkpt>
      <trkpt lat="46.86134" lon="-0.8969">
        <ele>242.98</ele>
        <time>2019-07-19T08:32:06.000Z</time>
      </trkpt>
      <trkpt lat="46.86124" lon="-0.89684">
        <ele>245.17</ele>
        <time>2019-07-19T08:32:21.000Z</time>
      </trkpt>
      <trkpt lat="46.86113" lon="-0.89679">
        <ele>243.65</ele>
        <time>2019-07-19T08:32:31.000Z</time>
      </trkpt>
      <trkpt lat="46.86104" lon="-0.89673">
        <ele>246.92</ele>
        <time>2019-07-19T08:32:41.000Z</time>
      </trkpt>
      <trkpt lat="46.86097" lon="-0.89666">
        <ele>249.1</ele>
        <time>2019-07-19T08:32:51.000Z</time>
      </trkpt>
      <trkpt lat="46.86088" lon="-0.8966">
        <ele>249.73</ele>
        <time>2019-07-19T08:33:01.000Z</time>
      </trkpt>
      <trkpt lat="46.86077" lon="-0.89654">
        <ele>249.92</ele>
        <time>2019-07-19T08:33:11.000Z</time>
      </trkpt>
      <trkpt lat="46.86068" lon="-0.89647">
        <ele>250.9</ele>
        <time>2019-07-19T08:33:21.000Z</time>
      </trkpt>
      <trkpt lat="46.8606" lon="-0.89634">
        <ele>247.98</ele>
        <time>2019-07-19T08:33:31.000Z</time>
      </trkpt>
      <trkpt lat="46.86052" lon="-0.89624">
        <ele>247.11</ele>
        <time>2019-07-19T08:33:42.000Z</time>
      </trkpt>
      <trkpt lat="46.86042" lon="-0.8962">
        <ele>246.92</ele>
        <time>2019-07-19T08:33:52.000Z</time>
      </trkpt>
      <trkpt lat="46.86033" lon="-0.89615">
        <ele>251.65</ele>
        <time>2019-07-19T08:34:03.000Z</time>
      </trkpt>
      <trkpt lat="46.86022" lon="-0.89611">
        <ele>253.92</ele>
        <time>2019-07-19T08:34:13.000Z</time>
      </trkpt>
      <trkpt lat="46.86012" lon="-0.89606">
        <ele>251.93</ele>
        <time>2019-07-19T08:34:23.000Z</time>
      </trkpt>
      <trkpt lat="46.86002" lon="-0.89604">
        <ele>246.94</ele>
        <time>2019-07-19T08:34:46.000Z</time>
      </trkpt>
      <trkpt lat="46.85993" lon="-0.89601">
        <ele>246.12</ele>
        <time>2019-07-19T08:35:06.000Z</time>
      </trkpt>
      <trkpt lat="46.85986" lon="-0.89594">
        <ele>244.93</ele>
        <time>2019-07-19T08:37:22.000Z</time>
      </trkpt>
      <trkpt lat="46.85993" lon="-0.89602">
        <ele>246.92</ele>
        <time>2019-07-19T08:39:18.000Z</time>
      </trkpt>
      <trkpt lat="46.86003" lon="-0.89604">
        <ele>244.92</ele>
        <time>2019-07-19T08:39:35.000Z</time>
      </trkpt>
      <trkpt lat="46.86005" lon="-0.89616">
        <ele>247.99</ele>
        <time>2019-07-19T08:40:02.000Z</time>
      </trkpt>
      <trkpt lat="46.86009" lon="-0.8963">
        <ele>249.11</ele>
        <time>2019-07-19T08:40:15.000Z</time>
      </trkpt>
      <trkpt lat="46.86004" lon="-0.89642">
        <ele>247.94</ele>
        <time>2019-07-19T08:40:26.000Z</time>
      </trkpt>
      <trkpt lat="46.85997" lon="-0.89651">
        <ele>248.17</ele>
        <time>2019-07-19T08:40:37.000Z</time>
      </trkpt>
      <trkpt lat="46.8599" lon="-0.89659">
        <ele>250.68</ele>
        <time>2019-07-19T08:40:52.000Z</time>
      </trkpt>
      <trkpt lat="46.85982" lon="-0.89666">
        <ele>253.95</ele>
        <time>2019-07-19T08:41:04.000Z</time>
      </trkpt>
      <trkpt lat="46.85971" lon="-0.89672">
        <ele>253.19</ele>
        <time>2019-07-19T08:41:14.000Z</time>
      </trkpt>
      <trkpt lat="46.85961" lon="-0.89677">
        <ele>255.6</ele>
        <time>2019-07-19T08:41:24.000Z</time>
      </trkpt>
      <trkpt lat="46.85952" lon="-0.89681">
        <ele>256.98</ele>
        <time>2019-07-19T08:41:34.000Z</time>
      </trkpt>
      <trkpt lat="46.85944" lon="-0.89688">
        <ele>261</ele>
        <time>2019-07-19T08:41:46.000Z</time>
      </trkpt>
      <trkpt lat="46.85937" lon="-0.89696">
        <ele>259.65</ele>
        <time>2019-07-19T08:41:57.000Z</time>
      </trkpt>
      <trkpt lat="46.85929" lon="-0.89703">
        <ele>258.19</ele>
        <time>2019-07-19T08:42:08.000Z</time>
      </trkpt>
      <trkpt lat="46.85919" lon="-0.89706">
        <ele>257.9</ele>
        <time>2019-07-19T08:42:19.000Z</time>
      </trkpt>
      <trkpt lat="46.85909" lon="-0.89707">
        <ele>256.17</ele>
        <time>2019-07-19T08:42:30.000Z</time>
      </trkpt>
      <trkpt lat="46.859" lon="-0.89711">
        <ele>252.97</ele>
        <time>2019-07-19T08:42:43.000Z</time>
      </trkpt>
      <trkpt lat="46.8589" lon="-0.8971">
        <ele>252.11</ele>
        <time>2019-07-19T08:43:01.000Z</time>
      </trkpt>
      <trkpt lat="46.85879" lon="-0.89707">
        <ele>253.92</ele>
        <time>2019-07-19T08:43:11.000Z</time>
      </trkpt>
      <trkpt lat="46.85869" lon="-0.89702">
        <ele>252.67</ele>
        <time>2019-07-19T08:43:25.000Z</time>
      </trkpt>
      <trkpt lat="46.8586" lon="-0.89691">
        <ele>250.18</ele>
        <time>2019-07-19T08:43:35.000Z</time>
      </trkpt>
      <trkpt lat="46.85851" lon="-0.89677">
        <ele>250.99</ele>
        <time>2019-07-19T08:43:45.000Z</time>
      </trkpt>
      <trkpt lat="46.85843" lon="-0.89665">
        <ele>249.05</ele>
        <time>2019-07-19T08:43:55.000Z</time>
      </trkpt>
      <trkpt lat="46.85835" lon="-0.89657">
        <ele>245.05</ele>
        <time>2019-07-19T08:46:09.000Z</time>
      </trkpt>
      <trkpt lat="46.85826" lon="-0.89656">
        <ele>239.98</ele>
        <time>2019-07-19T08:46:27.000Z</time>
      </trkpt>
      <trkpt lat="46.85816" lon="-0.89651">
        <ele>240.89</ele>
        <time>2019-07-19T08:46:38.000Z</time>
      </trkpt>
      <trkpt lat="46.85804" lon="-0.89649">
        <ele>245.59</ele>
        <time>2019-07-19T08:46:48.000Z</time>
      </trkpt>
      <trkpt lat="46.85795" lon="-0.89646">
        <ele>248.92</ele>
        <time>2019-07-19T08:47:02.000Z</time>
      </trkpt>
      <trkpt lat="46.85786" lon="-0.89646">
        <ele>245.98</ele>
        <time>2019-07-19T08:47:26.000Z</time>
      </trkpt>
      <trkpt lat="46.85772" lon="-0.89645">
        <ele>245.34</ele>
        <time>2019-07-19T08:47:36.000Z</time>
      </trkpt>
      <trkpt lat="46.8576" lon="-0.89644">
        <ele>248.71</ele>
        <time>2019-07-19T08:47:46.000Z</time>
      </trkpt>
      <trkpt lat="46.85748" lon="-0.89645">
        <ele>248.04</ele>
        <time>2019-07-19T08:47:56.000Z</time>
      </trkpt>
      <trkpt lat="46.85738" lon="-0.89647">
        <ele>248.94</ele>
        <time>2019-07-19T08:48:06.000Z</time>
      </trkpt>
      <trkpt lat="46.85728" lon="-0.89651">
        <ele>250.93</ele>
        <time>2019-07-19T08:48:17.000Z</time>
      </trkpt>
      <trkpt lat="46.85715" lon="-0.89654">
        <ele>249.69</ele>
        <time>2019-07-19T08:48:27.000Z</time>
      </trkpt>
      <trkpt lat="46.85705" lon="-0.89655">
        <ele>250.11</ele>
        <time>2019-07-19T08:48:38.000Z</time>
      </trkpt>
      <trkpt lat="46.85695" lon="-0.89655">
        <ele>246.23</ele>
        <time>2019-07-19T08:48:48.000Z</time>
      </trkpt>
      <trkpt lat="46.85685" lon="-0.89654">
        <ele>248.55</ele>
        <time>2019-07-19T08:49:02.000Z</time>
      </trkpt>
      <trkpt lat="46.85672" lon="-0.89657">
        <ele>248.87</ele>
        <time>2019-07-19T08:49:12.000Z</time>
      </trkpt>
      <trkpt lat="46.85663" lon="-0.89665">
        <ele>242.92</ele>
        <time>2019-07-19T08:49:45.000Z</time>
      </trkpt>
      <trkpt lat="46.85654" lon="-0.89672">
        <ele>243.16</ele>
        <time>2019-07-19T08:50:17.000Z</time>
      </trkpt>
      <trkpt lat="46.85644" lon="-0.89674">
        <ele>247.74</ele>
        <time>2019-07-19T08:50:27.000Z</time>
      </trkpt>
      <trkpt lat="46.85633" lon="-0.89678">
        <ele>250.15</ele>
        <time>2019-07-19T08:50:37.000Z</time>
      </trkpt>
      <trkpt lat="46.85622" lon="-0.89683">
        <ele>251.87</ele>
        <time>2019-07-19T08:50:47.000Z</time>
      </trkpt>
      <trkpt lat="46.85613" lon="-0.89685">
        <ele>250.96</ele>
        <time>2019-07-19T08:51:01.000Z</time>
      </trkpt>
      <trkpt lat="46.85603" lon="-0.89687">
        <ele>245.92</ele>
        <time>2019-07-19T08:51:16.000Z</time>
      </trkpt>
      <trkpt lat="46.85594" lon="-0.89688">
        <ele>246.86</ele>
        <time>2019-07-19T08:51:27.000Z</time>
      </trkpt>
      <trkpt lat="46.85583" lon="-0.89691">
        <ele>247.35</ele>
        <time>2019-07-19T08:51:37.000Z</time>
      </trkpt>
      <trkpt lat="46.85574" lon="-0.89691">
        <ele>246.67</ele>
        <time>2019-07-19T08:51:50.000Z</time>
      </trkpt>
      <trkpt lat="46.85564" lon="-0.89691">
        <ele>246.17</ele>
        <time>2019-07-19T08:52:00.000Z</time>
      </trkpt>
      <trkpt lat="46.85553" lon="-0.8969">
        <ele>248.2</ele>
        <time>2019-07-19T08:52:10.000Z</time>
      </trkpt>
      <trkpt lat="46.85543" lon="-0.8969">
        <ele>241.25</ele>
        <time>2019-07-19T08:52:20.000Z</time>
      </trkpt>
      <trkpt lat="46.85527" lon="-0.89697">
        <ele>243.85</ele>
        <time>2019-07-19T08:52:30.000Z</time>
      </trkpt>
      <trkpt lat="46.85518" lon="-0.89711">
        <ele>241.23</ele>
        <time>2019-07-19T08:52:40.000Z</time>
      </trkpt>
      <trkpt lat="46.8551" lon="-0.89722">
        <ele>241.25</ele>
        <time>2019-07-19T08:52:50.000Z</time>
      </trkpt>
      <trkpt lat="46.85502" lon="-0.89734">
        <ele>241.92</ele>
        <time>2019-07-19T08:53:00.000Z</time>
      </trkpt>
      <trkpt lat="46.85494" lon="-0.89748">
        <ele>240.93</ele>
        <time>2019-07-19T08:53:10.000Z</time>
      </trkpt>
      <trkpt lat="46.85491" lon="-0.89763">
        <ele>237.28</ele>
        <time>2019-07-19T08:53:20.000Z</time>
      </trkpt>
      <trkpt lat="46.85498" lon="-0.89773">
        <ele>227.12</ele>
        <time>2019-07-19T08:54:17.000Z</time>
      </trkpt>
      <trkpt lat="46.85507" lon="-0.89772">
        <ele>224.67</ele>
        <time>2019-07-19T08:58:29.000Z</time>
      </trkpt>
      <trkpt lat="46.85508" lon="-0.89785">
        <ele>223.98</ele>
        <time>2019-07-19T08:58:50.000Z</time>
      </trkpt>
      <trkpt lat="46.85512" lon="-0.89798">
        <ele>223.73</ele>
        <time>2019-07-19T08:59:01.000Z</time>
      </trkpt>
      <trkpt lat="46.85515" lon="-0.89812">
        <ele>224.94</ele>
        <time>2019-07-19T08:59:13.000Z</time>
      </trkpt>
      <trkpt lat="46.85519" lon="-0.89826">
        <ele>223.92</ele>
        <time>2019-07-19T08:59:23.000Z</time>
      </trkpt>
      <trkpt lat="46.85523" lon="-0.8984">
        <ele>224.87</ele>
        <time>2019-07-19T08:59:33.000Z</time>
      </trkpt>
      <trkpt lat="46.85523" lon="-0.89855">
        <ele>222.19</ele>
        <time>2019-07-19T08:59:43.000Z</time>
      </trkpt>
      <trkpt lat="46.85528" lon="-0.89868">
        <ele>220.67</ele>
        <time>2019-07-19T08:59:53.000Z</time>
      </trkpt>
      <trkpt lat="46.85534" lon="-0.89883">
        <ele>221.92</ele>
        <time>2019-07-19T09:00:03.000Z</time>
      </trkpt>
      <trkpt lat="46.85542" lon="-0.89897">
        <ele>224.74</ele>
        <time>2019-07-19T09:00:13.000Z</time>
      </trkpt>
      <trkpt lat="46.85546" lon="-0.89913">
        <ele>226.84</ele>
        <time>2019-07-19T09:00:23.000Z</time>
      </trkpt>
      <trkpt lat="46.85549" lon="-0.89927">
        <ele>225.92</ele>
        <time>2019-07-19T09:00:33.000Z</time>
      </trkpt>
      <trkpt lat="46.85551" lon="-0.89942">
        <ele>229.09</ele>
        <time>2019-07-19T09:00:43.000Z</time>
      </trkpt>
      <trkpt lat="46.85557" lon="-0.89956">
        <ele>232.87</ele>
        <time>2019-07-19T09:00:53.000Z</time>
      </trkpt>
      <trkpt lat="46.85565" lon="-0.89969">
        <ele>232.98</ele>
        <time>2019-07-19T09:01:03.000Z</time>
      </trkpt>
      <trkpt lat="46.85573" lon="-0.89976">
        <ele>234.09</ele>
        <time>2019-07-19T09:01:29.000Z</time>
      </trkpt>
      <trkpt lat="46.8558" lon="-0.89984">
        <ele>240.6</ele>
        <time>2019-07-19T09:03:41.000Z</time>
      </trkpt>
      <trkpt lat="46.85588" lon="-0.8999">
        <ele>246.37</ele>
        <time>2019-07-19T09:03:56.000Z</time>
      </trkpt>
      <trkpt lat="46.85596" lon="-0.89997">
        <ele>251.95</ele>
        <time>2019-07-19T09:04:13.000Z</time>
      </trkpt>
      <trkpt lat="46.85605" lon="-0.90006">
        <ele>253.38</ele>
        <time>2019-07-19T09:04:23.000Z</time>
      </trkpt>
      <trkpt lat="46.85611" lon="-0.90016">
        <ele>257.61</ele>
        <time>2019-07-19T09:04:33.000Z</time>
      </trkpt>
      <trkpt lat="46.85618" lon="-0.90027">
        <ele>258.91</ele>
        <time>2019-07-19T09:04:43.000Z</time>
      </trkpt>
      <trkpt lat="46.85623" lon="-0.90038">
        <ele>257.61</ele>
        <time>2019-07-19T09:04:59.000Z</time>
      </trkpt>
      <trkpt lat="46.85633" lon="-0.90055">
        <ele>258.85</ele>
        <time>2019-07-19T09:05:09.000Z</time>
      </trkpt>
      <trkpt lat="46.85638" lon="-0.90068">
        <ele>261.73</ele>
        <time>2019-07-19T09:05:19.000Z</time>
      </trkpt>
      <trkpt lat="46.85645" lon="-0.90081">
        <ele>261.13</ele>
        <time>2019-07-19T09:05:29.000Z</time>
      </trkpt>
      <trkpt lat="46.8565" lon="-0.90094">
        <ele>259.69</ele>
        <time>2019-07-19T09:05:39.000Z</time>
      </trkpt>
      <trkpt lat="46.85656" lon="-0.9011">
        <ele>254.81</ele>
        <time>2019-07-19T09:05:49.000Z</time>
      </trkpt>
      <trkpt lat="46.85664" lon="-0.90118">
        <ele>249.9</ele>
        <time>2019-07-19T09:06:01.000Z</time>
      </trkpt>
      <trkpt lat="46.85674" lon="-0.90114">
        <ele>252.86</ele>
        <time>2019-07-19T09:06:12.000Z</time>
      </trkpt>
      <trkpt lat="46.85683" lon="-0.9011">
        <ele>253.9</ele>
        <time>2019-07-19T09:06:23.000Z</time>
      </trkpt>
      <trkpt lat="46.85693" lon="-0.90106">
        <ele>259.59</ele>
        <time>2019-07-19T09:06:33.000Z</time>
      </trkpt>
      <trkpt lat="46.85702" lon="-0.90099">
        <ele>262.26</ele>
        <time>2019-07-19T09:06:43.000Z</time>
      </trkpt>
      <trkpt lat="46.85711" lon="-0.90093">
        <ele>262.98</ele>
        <time>2019-07-19T09:06:53.000Z</time>
      </trkpt>
      <trkpt lat="46.85719" lon="-0.90087">
        <ele>263.45</ele>
        <time>2019-07-19T09:07:03.000Z</time>
      </trkpt>
      <trkpt lat="46.85729" lon="-0.90076">
        <ele>263.04</ele>
        <time>2019-07-19T09:07:13.000Z</time>
      </trkpt>
      <trkpt lat="46.85739" lon="-0.90064">
        <ele>259.98</ele>
        <time>2019-07-19T09:07:23.000Z</time>
      </trkpt>
      <trkpt lat="46.85748" lon="-0.90059">
        <ele>259.8</ele>
        <time>2019-07-19T09:07:33.000Z</time>
      </trkpt>
      <trkpt lat="46.85755" lon="-0.90051">
        <ele>261.98</ele>
        <time>2019-07-19T09:07:43.000Z</time>
      </trkpt>
      <trkpt lat="46.85761" lon="-0.90038">
        <ele>260.75</ele>
        <time>2019-07-19T09:07:53.000Z</time>
      </trkpt>
      <trkpt lat="46.85769" lon="-0.9003">
        <ele>263.66</ele>
        <time>2019-07-19T09:08:03.000Z</time>
      </trkpt>
      <trkpt lat="46.85778" lon="-0.90027">
        <ele>269.31</ele>
        <time>2019-07-19T09:08:13.000Z</time>
      </trkpt>
      <trkpt lat="46.85787" lon="-0.90019">
        <ele>272.9</ele>
        <time>2019-07-19T09:08:23.000Z</time>
      </trkpt>
      <trkpt lat="46.85797" lon="-0.90008">
        <ele>268.2</ele>
        <time>2019-07-19T09:08:33.000Z</time>
      </trkpt>
      <trkpt lat="46.85807" lon="-0.89998">
        <ele>266.43</ele>
        <time>2019-07-19T09:08:43.000Z</time>
      </trkpt>
      <trkpt lat="46.85817" lon="-0.89993">
        <ele>269.67</ele>
        <time>2019-07-19T09:08:53.000Z</time>
      </trkpt>
      <trkpt lat="46.85828" lon="-0.89993">
        <ele>272.91</ele>
        <time>2019-07-19T09:09:03.000Z</time>
      </trkpt>
      <trkpt lat="46.85837" lon="-0.8999">
        <ele>270.69</ele>
        <time>2019-07-19T09:09:21.000Z</time>
      </trkpt>
      <trkpt lat="46.85845" lon="-0.89995">
        <ele>261.98</ele>
        <time>2019-07-19T09:11:29.000Z</time>
      </trkpt>
      <trkpt lat="46.85853" lon="-0.90005">
        <ele>262.92</ele>
        <time>2019-07-19T09:11:39.000Z</time>
      </trkpt>
      <trkpt lat="46.85859" lon="-0.90016">
        <ele>263.73</ele>
        <time>2019-07-19T09:11:49.000Z</time>
      </trkpt>
      <trkpt lat="46.85866" lon="-0.90028">
        <ele>260.92</ele>
        <time>2019-07-19T09:11:59.000Z</time>
      </trkpt>
      <trkpt lat="46.85875" lon="-0.90038">
        <ele>262.86</ele>
        <time>2019-07-19T09:12:09.000Z</time>
      </trkpt>
      <trkpt lat="46.85884" lon="-0.90047">
        <ele>262.99</ele>
        <time>2019-07-19T09:12:19.000Z</time>
      </trkpt>
      <trkpt lat="46.85893" lon="-0.9006">
        <ele>259.99</ele>
        <time>2019-07-19T09:12:29.000Z</time>
      </trkpt>
      <trkpt lat="46.85902" lon="-0.90069">
        <ele>264.93</ele>
        <time>2019-07-19T09:12:39.000Z</time>
      </trkpt>
      <trkpt lat="46.85912" lon="-0.9008">
        <ele>264.92</ele>
        <time>2019-07-19T09:12:49.000Z</time>
      </trkpt>
      <trkpt lat="46.85923" lon="-0.9009">
        <ele>264.17</ele>
        <time>2019-07-19T09:12:59.000Z</time>
      </trkpt>
      <trkpt lat="46.85933" lon="-0.90099">
        <ele>265.15</ele>
        <time>2019-07-19T09:13:09.000Z</time>
      </trkpt>
      <trkpt lat="46.85939" lon="-0.90109">
        <ele>266.61</ele>
        <time>2019-07-19T09:13:19.000Z</time>
      </trkpt>
      <trkpt lat="46.85943" lon="-0.90122">
        <ele>271.81</ele>
        <time>2019-07-19T09:13:31.000Z</time>
      </trkpt>
      <trkpt lat="46.85942" lon="-0.90136">
        <ele>273.16</ele>
        <time>2019-07-19T09:13:43.000Z</time>
      </trkpt>
      <trkpt lat="46.85943" lon="-0.90153">
        <ele>267.93</ele>
        <time>2019-07-19T09:13:53.000Z</time>
      </trkpt>
      <trkpt lat="46.8594" lon="-0.90168">
        <ele>265</ele>
        <time>2019-07-19T09:14:03.000Z</time>
      </trkpt>
      <trkpt lat="46.85938" lon="-0.90181">
        <ele>262.11</ele>
        <time>2019-07-19T09:14:18.000Z</time>
      </trkpt>
      <trkpt lat="46.85938" lon="-0.90194">
        <ele>261.59</ele>
        <time>2019-07-19T09:15:03.000Z</time>
      </trkpt>
      <trkpt lat="46.85935" lon="-0.90208">
        <ele>260.86</ele>
        <time>2019-07-19T09:15:13.000Z</time>
      </trkpt>
      <trkpt lat="46.85931" lon="-0.90221">
        <ele>254.35</ele>
        <time>2019-07-19T09:15:23.000Z</time>
      </trkpt>
      <trkpt lat="46.85923" lon="-0.90232">
        <ele>253.87</ele>
        <time>2019-07-19T09:15:33.000Z</time>
      </trkpt>
      <trkpt lat="46.85913" lon="-0.90238">
        <ele>255.62</ele>
        <time>2019-07-19T09:15:43.000Z</time>
      </trkpt>
      <trkpt lat="46.85909" lon="-0.90253">
        <ele>256.67</ele>
        <time>2019-07-19T09:15:53.000Z</time>
      </trkpt>
      <trkpt lat="46.85906" lon="-0.90266">
        <ele>252.93</ele>
        <time>2019-07-19T09:16:20.000Z</time>
      </trkpt>
      <trkpt lat="46.85902" lon="-0.90279">
        <ele>252.23</ele>
        <time>2019-07-19T09:16:30.000Z</time>
      </trkpt>
      <trkpt lat="46.85909" lon="-0.90286">
        <ele>249.97</ele>
        <time>2019-07-19T09:20:54.000Z</time>
      </trkpt>
      <trkpt lat="46.85917" lon="-0.90296">
        <ele>247.92</ele>
        <time>2019-07-19T09:21:04.000Z</time>
      </trkpt>
      <trkpt lat="46.85925" lon="-0.90305">
        <ele>246.93</ele>
        <time>2019-07-19T09:21:14.000Z</time>
      </trkpt>
      <trkpt lat="46.85923" lon="-0.90318">
        <ele>244.92</ele>
        <time>2019-07-19T09:21:30.000Z</time>
      </trkpt>
      <trkpt lat="46.85918" lon="-0.90329">
        <ele>245.92</ele>
        <time>2019-07-19T09:21:40.000Z</time>
      </trkpt>
      <trkpt lat="46.85918" lon="-0.90342">
        <ele>243.18</ele>
        <time>2019-07-19T09:21:52.000Z</time>
      </trkpt>
      <trkpt lat="46.85918" lon="-0.90356">
        <ele>245.92</ele>
        <time>2019-07-19T09:22:07.000Z</time>
      </trkpt>
      <trkpt lat="46.85916" lon="-0.9037">
        <ele>243.29</ele>
        <time>2019-07-19T09:22:20.000Z</time>
      </trkpt>
      <trkpt lat="46.85913" lon="-0.90382">
        <ele>246.79</ele>
        <time>2019-07-19T09:22:40.000Z</time>
      </trkpt>
      <trkpt lat="46.85908" lon="-0.90393">
        <ele>249.91</ele>
        <time>2019-07-19T09:22:51.000Z</time>
      </trkpt>
      <trkpt lat="46.85917" lon="-0.90395">
        <ele>246.11</ele>
        <time>2019-07-19T09:23:06.000Z</time>
      </trkpt>
      <trkpt lat="46.85927" lon="-0.9039">
        <ele>246.23</ele>
        <time>2019-07-19T09:23:16.000Z</time>
      </trkpt>
      <trkpt lat="46.85936" lon="-0.90385">
        <ele>247.14</ele>
        <time>2019-07-19T09:23:26.000Z</time>
      </trkpt>
      <trkpt lat="46.85944" lon="-0.9038">
        <ele>253.86</ele>
        <time>2019-07-19T09:23:38.000Z</time>
      </trkpt>
      <trkpt lat="46.85954" lon="-0.90376">
        <ele>258.96</ele>
        <time>2019-07-19T09:23:49.000Z</time>
      </trkpt>
      <trkpt lat="46.85964" lon="-0.9037">
        <ele>257.9</ele>
        <time>2019-07-19T09:23:59.000Z</time>
      </trkpt>
      <trkpt lat="46.85973" lon="-0.90368">
        <ele>262.66</ele>
        <time>2019-07-19T09:24:09.000Z</time>
      </trkpt>
      <trkpt lat="46.85984" lon="-0.90365">
        <ele>266.83</ele>
        <time>2019-07-19T09:24:20.000Z</time>
      </trkpt>
      <trkpt lat="46.85992" lon="-0.90357">
        <ele>271.89</ele>
        <time>2019-07-19T09:24:31.000Z</time>
      </trkpt>
      <trkpt lat="46.86005" lon="-0.90348">
        <ele>252.87</ele>
        <time>2019-07-19T09:24:41.000Z</time>
      </trkpt>
      <trkpt lat="46.86017" lon="-0.90341">
        <ele>247.92</ele>
        <time>2019-07-19T09:24:51.000Z</time>
      </trkpt>
      <trkpt lat="46.86027" lon="-0.90335">
        <ele>247.34</ele>
        <time>2019-07-19T09:25:01.000Z</time>
      </trkpt>
      <trkpt lat="46.86038" lon="-0.90327">
        <ele>244.35</ele>
        <time>2019-07-19T09:25:11.000Z</time>
      </trkpt>
      <trkpt lat="46.86048" lon="-0.90325">
        <ele>245.67</ele>
        <time>2019-07-19T09:25:21.000Z</time>
      </trkpt>
      <trkpt lat="46.86058" lon="-0.90317">
        <ele>247.61</ele>
        <time>2019-07-19T09:25:31.000Z</time>
      </trkpt>
      <trkpt lat="46.86069" lon="-0.90316">
        <ele>250.68</ele>
        <time>2019-07-19T09:25:41.000Z</time>
      </trkpt>
      <trkpt lat="46.86079" lon="-0.90314">
        <ele>250.92</ele>
        <time>2019-07-19T09:25:51.000Z</time>
      </trkpt>
      <trkpt lat="46.86091" lon="-0.90302">
        <ele>248.67</ele>
        <time>2019-07-19T09:26:01.000Z</time>
      </trkpt>
      <trkpt lat="46.86102" lon="-0.90292">
        <ele>248.93</ele>
        <time>2019-07-19T09:26:11.000Z</time>
      </trkpt>
      <trkpt lat="46.86111" lon="-0.90275">
        <ele>244.11</ele>
        <time>2019-07-19T09:26:21.000Z</time>
      </trkpt>
      <trkpt lat="46.86115" lon="-0.90261">
        <ele>242.85</ele>
        <time>2019-07-19T09:26:31.000Z</time>
      </trkpt>
      <trkpt lat="46.86114" lon="-0.90246">
        <ele>246.18</ele>
        <time>2019-07-19T09:26:41.000Z</time>
      </trkpt>
      <trkpt lat="46.86113" lon="-0.90225">
        <ele>245.11</ele>
        <time>2019-07-19T09:26:51.000Z</time>
      </trkpt>
      <trkpt lat="46.86108" lon="-0.90208">
        <ele>248.48</ele>
        <time>2019-07-19T09:27:01.000Z</time>
      </trkpt>
      <trkpt lat="46.86105" lon="-0.90195">
        <ele>238.68</ele>
        <time>2019-07-19T09:27:40.000Z</time>
      </trkpt>
      <trkpt lat="46.8611" lon="-0.90184">
        <ele>243.87</ele>
        <time>2019-07-19T09:28:04.000Z</time>
      </trkpt>
      <trkpt lat="46.86117" lon="-0.90176">
        <ele>249.79</ele>
        <time>2019-07-19T09:28:22.000Z</time>
      </trkpt>
      <trkpt lat="46.86114" lon="-0.90161">
        <ele>241.54</ele>
        <time>2019-07-19T09:32:07.000Z</time>
      </trkpt>
      <trkpt lat="46.86113" lon="-0.90141">
        <ele>241.67</ele>
        <time>2019-07-19T09:32:17.000Z</time>
      </trkpt>
      <trkpt lat="46.8611" lon="-0.90128">
        <ele>241.91</ele>
        <time>2019-07-19T09:32:27.000Z</time>
      </trkpt>
      <trkpt lat="46.86106" lon="-0.90114">
        <ele>242.92</ele>
        <time>2019-07-19T09:32:37.000Z</time>
      </trkpt>
      <trkpt lat="46.861" lon="-0.901">
        <ele>242.11</ele>
        <time>2019-07-19T09:32:47.000Z</time>
      </trkpt>
      <trkpt lat="46.86097" lon="-0.90085">
        <ele>244.84</ele>
        <time>2019-07-19T09:32:57.000Z</time>
      </trkpt>
      <trkpt lat="46.86097" lon="-0.90071">
        <ele>242.19</ele>
        <time>2019-07-19T09:33:07.000Z</time>
      </trkpt>
      <trkpt lat="46.86097" lon="-0.90056">
        <ele>243.92</ele>
        <time>2019-07-19T09:33:17.000Z</time>
      </trkpt>
      <trkpt lat="46.86102" lon="-0.90034">
        <ele>245.37</ele>
        <time>2019-07-19T09:33:27.000Z</time>
      </trkpt>
      <trkpt lat="46.86101" lon="-0.90016">
        <ele>245.11</ele>
        <time>2019-07-19T09:33:37.000Z</time>
      </trkpt>
      <trkpt lat="46.86104" lon="-0.89998">
        <ele>244.78</ele>
        <time>2019-07-19T09:33:47.000Z</time>
      </trkpt>
      <trkpt lat="46.86103" lon="-0.89977">
        <ele>248.59</ele>
        <time>2019-07-19T09:33:57.000Z</time>
      </trkpt>
      <trkpt lat="46.86108" lon="-0.89958">
        <ele>247.93</ele>
        <time>2019-07-19T09:34:07.000Z</time>
      </trkpt>
      <trkpt lat="46.86112" lon="-0.89943">
        <ele>245.98</ele>
        <time>2019-07-19T09:34:18.000Z</time>
      </trkpt>
      <trkpt lat="46.86117" lon="-0.8993">
        <ele>247.68</ele>
        <time>2019-07-19T09:34:28.000Z</time>
      </trkpt>
      <trkpt lat="46.8612" lon="-0.89917">
        <ele>246.87</ele>
        <time>2019-07-19T09:34:39.000Z</time>
      </trkpt>
      <trkpt lat="46.86123" lon="-0.89899">
        <ele>245.68</ele>
        <time>2019-07-19T09:34:49.000Z</time>
      </trkpt>
      <trkpt lat="46.86126" lon="-0.89884">
        <ele>244.28</ele>
        <time>2019-07-19T09:34:59.000Z</time>
      </trkpt>
      <trkpt lat="46.86131" lon="-0.8986">
        <ele>239.92</ele>
        <time>2019-07-19T09:35:09.000Z</time>
      </trkpt>
      <trkpt lat="46.86128" lon="-0.89839">
        <ele>239.65</ele>
        <time>2019-07-19T09:35:19.000Z</time>
      </trkpt>
      <trkpt lat="46.86123" lon="-0.89824">
        <ele>242.23</ele>
        <time>2019-07-19T09:35:29.000Z</time>
      </trkpt>
      <trkpt lat="46.86121" lon="-0.89808">
        <ele>239.67</ele>
        <time>2019-07-19T09:35:39.000Z</time>
      </trkpt>
      <trkpt lat="46.86116" lon="-0.89795">
        <ele>238.17</ele>
        <time>2019-07-19T09:35:49.000Z</time>
      </trkpt>
      <trkpt lat="46.86113" lon="-0.89779">
        <ele>238.98</ele>
        <time>2019-07-19T09:35:59.000Z</time>
      </trkpt>
      <trkpt lat="46.86108" lon="-0.89767">
        <ele>238.23</ele>
        <time>2019-07-19T09:38:09.000Z</time>
      </trkpt>
      <trkpt lat="46.86108" lon="-0.8978">
        <ele>239.29</ele>
        <time>2019-07-19T09:38:52.000Z</time>
      </trkpt>
      <trkpt lat="46.86113" lon="-0.89793">
        <ele>242.97</ele>
        <time>2019-07-19T09:39:02.000Z</time>
      </trkpt>
      <trkpt lat="46.86117" lon="-0.8981">
        <ele>243.84</ele>
        <time>2019-07-19T09:39:12.000Z</time>
      </trkpt>
      <trkpt lat="46.8612" lon="-0.89824">
        <ele>246.84</ele>
        <time>2019-07-19T09:39:23.000Z</time>
      </trkpt>
      <trkpt lat="46.86123" lon="-0.89842">
        <ele>246.4</ele>
        <time>2019-07-19T09:39:33.000Z</time>
      </trkpt>
      <trkpt lat="46.86121" lon="-0.89856">
        <ele>247.14</ele>
        <time>2019-07-19T09:39:46.000Z</time>
      </trkpt>
      <trkpt lat="46.86121" lon="-0.89873">
        <ele>250.56</ele>
        <time>2019-07-19T09:39:56.000Z</time>
      </trkpt>
      <trkpt lat="46.8612" lon="-0.8989">
        <ele>250.21</ele>
        <time>2019-07-19T09:40:06.000Z</time>
      </trkpt>
      <trkpt lat="46.86114" lon="-0.89905">
        <ele>254.96</ele>
        <time>2019-07-19T09:40:16.000Z</time>
      </trkpt>
      <trkpt lat="46.8611" lon="-0.89921">
        <ele>257.6</ele>
        <time>2019-07-19T09:40:26.000Z</time>
      </trkpt>
      <trkpt lat="46.86108" lon="-0.89938">
        <ele>262.37</ele>
        <time>2019-07-19T09:40:36.000Z</time>
      </trkpt>
      <trkpt lat="46.86105" lon="-0.89957">
        <ele>259.29</ele>
        <time>2019-07-19T09:40:46.000Z</time>
      </trkpt>
      <trkpt lat="46.86103" lon="-0.89974">
        <ele>257.65</ele>
        <time>2019-07-19T09:40:56.000Z</time>
      </trkpt>
      <trkpt lat="46.86099" lon="-0.89994">
        <ele>251.2</ele>
        <time>2019-07-19T09:41:06.000Z</time>
      </trkpt>
      <trkpt lat="46.86097" lon="-0.9001">
        <ele>248.92</ele>
        <time>2019-07-19T09:41:16.000Z</time>
      </trkpt>
      <trkpt lat="46.86095" lon="-0.90025">
        <ele>254.88</ele>
        <time>2019-07-19T09:41:26.000Z</time>
      </trkpt>
      <trkpt lat="46.86093" lon="-0.9004">
        <ele>253.87</ele>
        <time>2019-07-19T09:41:36.000Z</time>
      </trkpt>
      <trkpt lat="46.86093" lon="-0.9006">
        <ele>254.87</ele>
        <time>2019-07-19T09:41:46.000Z</time>
      </trkpt>
      <trkpt lat="46.86095" lon="-0.90076">
        <ele>258.68</ele>
        <time>2019-07-19T09:41:56.000Z</time>
      </trkpt>
      <trkpt lat="46.86099" lon="-0.90097">
        <ele>257.3</ele>
        <time>2019-07-19T09:42:06.000Z</time>
      </trkpt>
      <trkpt lat="46.86102" lon="-0.90114">
        <ele>256.49</ele>
        <time>2019-07-19T09:42:16.000Z</time>
      </trkpt>
      <trkpt lat="46.86109" lon="-0.90136">
        <ele>251.45</ele>
        <time>2019-07-19T09:42:26.000Z</time>
      </trkpt>
      <trkpt lat="46.86112" lon="-0.90154">
        <ele>253.56</ele>
        <time>2019-07-19T09:42:36.000Z</time>
      </trkpt>
      <trkpt lat="46.86109" lon="-0.90172">
        <ele>252.1</ele>
        <time>2019-07-19T09:42:46.000Z</time>
      </trkpt>
      <trkpt lat="46.86107" lon="-0.90192">
        <ele>251.29</ele>
        <time>2019-07-19T09:42:56.000Z</time>
      </trkpt>
      <trkpt lat="46.86111" lon="-0.9021">
        <ele>246.92</ele>
        <time>2019-07-19T09:43:06.000Z</time>
      </trkpt>
      <trkpt lat="46.86114" lon="-0.90225">
        <ele>246.92</ele>
        <time>2019-07-19T09:43:16.000Z</time>
      </trkpt>
      <trkpt lat="46.86116" lon="-0.90241">
        <ele>246.86</ele>
        <time>2019-07-19T09:43:26.000Z</time>
      </trkpt>
      <trkpt lat="46.86116" lon="-0.90256">
        <ele>251.78</ele>
        <time>2019-07-19T09:43:38.000Z</time>
      </trkpt>
      <trkpt lat="46.86109" lon="-0.90269">
        <ele>250.54</ele>
        <time>2019-07-19T09:43:48.000Z</time>
      </trkpt>
      <trkpt lat="46.86099" lon="-0.90279">
        <ele>248.24</ele>
        <time>2019-07-19T09:43:58.000Z</time>
      </trkpt>
      <trkpt lat="46.86088" lon="-0.90287">
        <ele>248.67</ele>
        <time>2019-07-19T09:44:08.000Z</time>
      </trkpt>
      <trkpt lat="46.86079" lon="-0.90293">
        <ele>249.09</ele>
        <time>2019-07-19T09:44:18.000Z</time>
      </trkpt>
      <trkpt lat="46.86067" lon="-0.90298">
        <ele>249.93</ele>
        <time>2019-07-19T09:44:28.000Z</time>
      </trkpt>
      <trkpt lat="46.86056" lon="-0.90305">
        <ele>248.73</ele>
        <time>2019-07-19T09:44:38.000Z</time>
      </trkpt>
      <trkpt lat="46.86046" lon="-0.90311">
        <ele>249.98</ele>
        <time>2019-07-19T09:44:48.000Z</time>
      </trkpt>
      <trkpt lat="46.86036" lon="-0.90317">
        <ele>254.9</ele>
        <time>2019-07-19T09:44:58.000Z</time>
      </trkpt>
      <trkpt lat="46.86023" lon="-0.90324">
        <ele>253.89</ele>
        <time>2019-07-19T09:45:08.000Z</time>
      </trkpt>
      <trkpt lat="46.86013" lon="-0.9033">
        <ele>249.17</ele>
        <time>2019-07-19T09:45:18.000Z</time>
      </trkpt>
      <trkpt lat="46.86" lon="-0.90337">
        <ele>246.67</ele>
        <time>2019-07-19T09:45:28.000Z</time>
      </trkpt>
      <trkpt lat="46.85989" lon="-0.90342">
        <ele>249.62</ele>
        <time>2019-07-19T09:45:38.000Z</time>
      </trkpt>
      <trkpt lat="46.8598" lon="-0.90348">
        <ele>250.85</ele>
        <time>2019-07-19T09:45:48.000Z</time>
      </trkpt>
      <trkpt lat="46.85969" lon="-0.90357">
        <ele>250.17</ele>
        <time>2019-07-19T09:45:58.000Z</time>
      </trkpt>
      <trkpt lat="46.85958" lon="-0.90365">
        <ele>248.72</ele>
        <time>2019-07-19T09:46:08.000Z</time>
      </trkpt>
      <trkpt lat="46.85946" lon="-0.90372">
        <ele>246.18</ele>
        <time>2019-07-19T09:46:18.000Z</time>
      </trkpt>
      <trkpt lat="46.85936" lon="-0.90382">
        <ele>244.16</ele>
        <time>2019-07-19T09:46:28.000Z</time>
      </trkpt>
      <trkpt lat="46.85925" lon="-0.90388">
        <ele>244.86</ele>
        <time>2019-07-19T09:46:38.000Z</time>
      </trkpt>
      <trkpt lat="46.85914" lon="-0.90394">
        <ele>246.92</ele>
        <time>2019-07-19T09:46:48.000Z</time>
      </trkpt>
      <trkpt lat="46.85905" lon="-0.90399">
        <ele>250.13</ele>
        <time>2019-07-19T09:46:59.000Z</time>
      </trkpt>
      <trkpt lat="46.85895" lon="-0.904">
        <ele>252.9</ele>
        <time>2019-07-19T09:47:09.000Z</time>
      </trkpt>
      <trkpt lat="46.85885" lon="-0.90396">
        <ele>255.84</ele>
        <time>2019-07-19T09:47:21.000Z</time>
      </trkpt>
      <trkpt lat="46.85875" lon="-0.90388">
        <ele>257.92</ele>
        <time>2019-07-19T09:47:31.000Z</time>
      </trkpt>
      <trkpt lat="46.85863" lon="-0.90378">
        <ele>256.41</ele>
        <time>2019-07-19T09:47:41.000Z</time>
      </trkpt>
      <trkpt lat="46.85854" lon="-0.90366">
        <ele>255.92</ele>
        <time>2019-07-19T09:47:51.000Z</time>
      </trkpt>
      <trkpt lat="46.85846" lon="-0.90351">
        <ele>251.01</ele>
        <time>2019-07-19T09:48:01.000Z</time>
      </trkpt>
      <trkpt lat="46.85838" lon="-0.90338">
        <ele>252.21</ele>
        <time>2019-07-19T09:48:11.000Z</time>
      </trkpt>
      <trkpt lat="46.85829" lon="-0.90325">
        <ele>252.26</ele>
        <time>2019-07-19T09:48:21.000Z</time>
      </trkpt>
      <trkpt lat="46.85823" lon="-0.90313">
        <ele>254.92</ele>
        <time>2019-07-19T09:48:31.000Z</time>
      </trkpt>
      <trkpt lat="46.85812" lon="-0.90303">
        <ele>253.23</ele>
        <time>2019-07-19T09:48:41.000Z</time>
      </trkpt>
      <trkpt lat="46.85801" lon="-0.90296">
        <ele>246.92</ele>
        <time>2019-07-19T09:48:51.000Z</time>
      </trkpt>
      <trkpt lat="46.85791" lon="-0.90294">
        <ele>249.28</ele>
        <time>2019-07-19T09:49:20.000Z</time>
      </trkpt>
      <trkpt lat="46.85783" lon="-0.90302">
        <ele>244.74</ele>
        <time>2019-07-19T09:49:31.000Z</time>
      </trkpt>
      <trkpt lat="46.85775" lon="-0.90308">
        <ele>245.3</ele>
        <time>2019-07-19T09:49:49.000Z</time>
      </trkpt>
      <trkpt lat="46.85767" lon="-0.90313">
        <ele>243.19</ele>
        <time>2019-07-19T09:50:01.000Z</time>
      </trkpt>
      <trkpt lat="46.85762" lon="-0.90325">
        <ele>241.83</ele>
        <time>2019-07-19T09:50:11.000Z</time>
      </trkpt>
      <trkpt lat="46.8576" lon="-0.90339">
        <ele>239.24</ele>
        <time>2019-07-19T09:50:24.000Z</time>
      </trkpt>
      <trkpt lat="46.85754" lon="-0.9035">
        <ele>236.92</ele>
        <time>2019-07-19T09:50:44.000Z</time>
      </trkpt>
      <trkpt lat="46.85748" lon="-0.90361">
        <ele>238.1</ele>
        <time>2019-07-19T09:50:57.000Z</time>
      </trkpt>
      <trkpt lat="46.85739" lon="-0.90369">
        <ele>237.28</ele>
        <time>2019-07-19T09:51:10.000Z</time>
      </trkpt>
      <trkpt lat="46.8574" lon="-0.90383">
        <ele>247.14</ele>
        <time>2019-07-19T09:53:24.000Z</time>
      </trkpt>
      <trkpt lat="46.85743" lon="-0.90399">
        <ele>244.93</ele>
        <time>2019-07-19T09:53:38.000Z</time>
      </trkpt>
      <trkpt lat="46.85748" lon="-0.90414">
        <ele>240.98</ele>
        <time>2019-07-19T09:53:48.000Z</time>
      </trkpt>
      <trkpt lat="46.85753" lon="-0.90428">
        <ele>241.62</ele>
        <time>2019-07-19T09:53:58.000Z</time>
      </trkpt>
      <trkpt lat="46.85754" lon="-0.90442">
        <ele>246.65</ele>
        <time>2019-07-19T09:54:08.000Z</time>
      </trkpt>
      <trkpt lat="46.85757" lon="-0.90459">
        <ele>240.18</ele>
        <time>2019-07-19T09:54:18.000Z</time>
      </trkpt>
      <trkpt lat="46.85759" lon="-0.90475">
        <ele>238.6</ele>
        <time>2019-07-19T09:54:28.000Z</time>
      </trkpt>
      <trkpt lat="46.85766" lon="-0.90489">
        <ele>237.11</ele>
        <time>2019-07-19T09:54:38.000Z</time>
      </trkpt>
      <trkpt lat="46.85771" lon="-0.90505">
        <ele>236.96</ele>
        <time>2019-07-19T09:54:48.000Z</time>
      </trkpt>
      <trkpt lat="46.85777" lon="-0.90522">
        <ele>238.85</ele>
        <time>2019-07-19T09:54:58.000Z</time>
      </trkpt>
      <trkpt lat="46.85782" lon="-0.90535">
        <ele>239.98</ele>
        <time>2019-07-19T09:55:08.000Z</time>
      </trkpt>
      <trkpt lat="46.8579" lon="-0.90551">
        <ele>241.66</ele>
        <time>2019-07-19T09:55:18.000Z</time>
      </trkpt>
      <trkpt lat="46.85797" lon="-0.90564">
        <ele>242.67</ele>
        <time>2019-07-19T09:55:28.000Z</time>
      </trkpt>
      <trkpt lat="46.85807" lon="-0.90565">
        <ele>228.69</ele>
        <time>2019-07-19T09:55:55.000Z</time>
      </trkpt>
      <trkpt lat="46.85816" lon="-0.90566">
        <ele>220.73</ele>
        <time>2019-07-19T09:56:23.000Z</time>
      </trkpt>
      <trkpt lat="46.85807" lon="-0.90564">
        <ele>218.56</ele>
        <time>2019-07-19T09:58:07.000Z</time>
      </trkpt>
      <trkpt lat="46.85806" lon="-0.90578">
        <ele>225.87</ele>
        <time>2019-07-19T09:58:22.000Z</time>
      </trkpt>
      <trkpt lat="46.85811" lon="-0.9059">
        <ele>228.61</ele>
        <time>2019-07-19T09:58:32.000Z</time>
      </trkpt>
      <trkpt lat="46.85818" lon="-0.90603">
        <ele>227.89</ele>
        <time>2019-07-19T09:58:42.000Z</time>
      </trkpt>
      <trkpt lat="46.85825" lon="-0.90613">
        <ele>229.47</ele>
        <time>2019-07-19T09:58:52.000Z</time>
      </trkpt>
      <trkpt lat="46.8583" lon="-0.90624">
        <ele>230.68</ele>
        <time>2019-07-19T09:59:07.000Z</time>
      </trkpt>
      <trkpt lat="46.85836" lon="-0.90635">
        <ele>232.65</ele>
        <time>2019-07-19T09:59:18.000Z</time>
      </trkpt>
      <trkpt lat="46.85847" lon="-0.90648">
        <ele>231.86</ele>
        <time>2019-07-19T09:59:28.000Z</time>
      </trkpt>
      <trkpt lat="46.85852" lon="-0.90661">
        <ele>225.81</ele>
        <time>2019-07-19T09:59:38.000Z</time>
      </trkpt>
      <trkpt lat="46.85866" lon="-0.90675">
        <ele>224.85</ele>
        <time>2019-07-19T09:59:48.000Z</time>
      </trkpt>
      <trkpt lat="46.85873" lon="-0.90688">
        <ele>223.23</ele>
        <time>2019-07-19T09:59:58.000Z</time>
      </trkpt>
      <trkpt lat="46.85875" lon="-0.90703">
        <ele>217.42</ele>
        <time>2019-07-19T10:00:08.000Z</time>
      </trkpt>
      <trkpt lat="46.85886" lon="-0.90715">
        <ele>217.71</ele>
        <time>2019-07-19T10:00:18.000Z</time>
      </trkpt>
      <trkpt lat="46.85894" lon="-0.90728">
        <ele>216.69</ele>
        <time>2019-07-19T10:00:28.000Z</time>
      </trkpt>
      <trkpt lat="46.85895" lon="-0.90744">
        <ele>205.48</ele>
        <time>2019-07-19T10:00:38.000Z</time>
      </trkpt>
      <trkpt lat="46.85898" lon="-0.9076">
        <ele>200.87</ele>
        <time>2019-07-19T10:00:48.000Z</time>
      </trkpt>
      <trkpt lat="46.85907" lon="-0.90775">
        <ele>198.92</ele>
        <time>2019-07-19T10:00:58.000Z</time>
      </trkpt>
      <trkpt lat="46.85915" lon="-0.9079">
        <ele>197.98</ele>
        <time>2019-07-19T10:01:08.000Z</time>
      </trkpt>
      <trkpt lat="46.85922" lon="-0.908">
        <ele>195.95</ele>
        <time>2019-07-19T10:01:18.000Z</time>
      </trkpt>
      <trkpt lat="46.85928" lon="-0.90814">
        <ele>193.92</ele>
        <time>2019-07-19T10:01:28.000Z</time>
      </trkpt>
      <trkpt lat="46.85936" lon="-0.90827">
        <ele>193.87</ele>
        <time>2019-07-19T10:01:38.000Z</time>
      </trkpt>
      <trkpt lat="46.85943" lon="-0.90838">
        <ele>189.17</ele>
        <time>2019-07-19T10:01:56.000Z</time>
      </trkpt>
      <trkpt lat="46.85945" lon="-0.90852">
        <ele>187.91</ele>
        <time>2019-07-19T10:02:13.000Z</time>
      </trkpt>
      <trkpt lat="46.85952" lon="-0.90868">
        <ele>189.68</ele>
        <time>2019-07-19T10:02:23.000Z</time>
      </trkpt>
      <trkpt lat="46.85954" lon="-0.90882">
        <ele>188.92</ele>
        <time>2019-07-19T10:02:42.000Z</time>
      </trkpt>
      <trkpt lat="46.85944" lon="-0.90883">
        <ele>180.56</ele>
        <time>2019-07-19T10:05:36.000Z</time>
      </trkpt>
      <trkpt lat="46.8595" lon="-0.90871">
        <ele>181.93</ele>
        <time>2019-07-19T10:05:49.000Z</time>
      </trkpt>
      <trkpt lat="46.85956" lon="-0.90857">
        <ele>187.57</ele>
        <time>2019-07-19T10:05:59.000Z</time>
      </trkpt>
      <trkpt lat="46.85952" lon="-0.90845">
        <ele>180.72</ele>
        <time>2019-07-19T10:06:10.000Z</time>
      </trkpt>
      <trkpt lat="46.85956" lon="-0.9083">
        <ele>181.98</ele>
        <time>2019-07-19T10:06:20.000Z</time>
      </trkpt>
      <trkpt lat="46.85951" lon="-0.9082">
        <ele>181.17</ele>
        <time>2019-07-19T10:06:30.000Z</time>
      </trkpt>
      <trkpt lat="46.85953" lon="-0.90805">
        <ele>179.97</ele>
        <time>2019-07-19T10:06:40.000Z</time>
      </trkpt>
      <trkpt lat="46.85956" lon="-0.90789">
        <ele>182.9</ele>
        <time>2019-07-19T10:06:50.000Z</time>
      </trkpt>
      <trkpt lat="46.85955" lon="-0.90773">
        <ele>181.23</ele>
        <time>2019-07-19T10:07:00.000Z</time>
      </trkpt>
      <trkpt lat="46.85956" lon="-0.90754">
        <ele>180.17</ele>
        <time>2019-07-19T10:07:10.000Z</time>
      </trkpt>
      <trkpt lat="46.85961" lon="-0.90737">
        <ele>181.66</ele>
        <time>2019-07-19T10:07:20.000Z</time>
      </trkpt>
      <trkpt lat="46.85965" lon="-0.9072">
        <ele>181.98</ele>
        <time>2019-07-19T10:07:30.000Z</time>
      </trkpt>
      <trkpt lat="46.8597" lon="-0.90705">
        <ele>179.92</ele>
        <time>2019-07-19T10:07:40.000Z</time>
      </trkpt>
      <trkpt lat="46.85978" lon="-0.90693">
        <ele>181.91</ele>
        <time>2019-07-19T10:07:50.000Z</time>
      </trkpt>
      <trkpt lat="46.85983" lon="-0.9068">
        <ele>184.1</ele>
        <time>2019-07-19T10:08:00.000Z</time>
      </trkpt>
      <trkpt lat="46.85988" lon="-0.90669">
        <ele>183.92</ele>
        <time>2019-07-19T10:08:11.000Z</time>
      </trkpt>
      <trkpt lat="46.8599" lon="-0.90653">
        <ele>181.92</ele>
        <time>2019-07-19T10:08:21.000Z</time>
      </trkpt>
      <trkpt lat="46.85989" lon="-0.90639">
        <ele>185.91</ele>
        <time>2019-07-19T10:08:33.000Z</time>
      </trkpt>
      <trkpt lat="46.85986" lon="-0.90625">
        <ele>188.44</ele>
        <time>2019-07-19T10:12:00.000Z</time>
      </trkpt>
      <trkpt lat="46.85987" lon="-0.90611">
        <ele>191.92</ele>
        <time>2019-07-19T10:12:43.000Z</time>
      </trkpt>
      <trkpt lat="46.85991" lon="-0.90598">
        <ele>193.21</ele>
        <time>2019-07-19T10:13:03.000Z</time>
      </trkpt>
      <trkpt lat="46.85993" lon="-0.90578">
        <ele>193.98</ele>
        <time>2019-07-19T10:13:13.000Z</time>
      </trkpt>
      <trkpt lat="46.85995" lon="-0.90564">
        <ele>192.67</ele>
        <time>2019-07-19T10:13:25.000Z</time>
      </trkpt>
      <trkpt lat="46.86" lon="-0.90551">
        <ele>194.9</ele>
        <time>2019-07-19T10:13:35.000Z</time>
      </trkpt>
      <trkpt lat="46.8601" lon="-0.90535">
        <ele>198.85</ele>
        <time>2019-07-19T10:13:45.000Z</time>
      </trkpt>
      <trkpt lat="46.86018" lon="-0.90526">
        <ele>200.61</ele>
        <time>2019-07-19T10:13:55.000Z</time>
      </trkpt>
      <trkpt lat="46.86026" lon="-0.90516">
        <ele>200.92</ele>
        <time>2019-07-19T10:14:06.000Z</time>
      </trkpt>
      <trkpt lat="46.86037" lon="-0.90498">
        <ele>198.98</ele>
        <time>2019-07-19T10:14:16.000Z</time>
      </trkpt>
      <trkpt lat="46.86048" lon="-0.90497">
        <ele>204.07</ele>
        <time>2019-07-19T10:14:26.000Z</time>
      </trkpt>
      <trkpt lat="46.86059" lon="-0.90489">
        <ele>204.46</ele>
        <time>2019-07-19T10:14:36.000Z</time>
      </trkpt>
      <trkpt lat="46.86067" lon="-0.90483">
        <ele>207.65</ele>
        <time>2019-07-19T10:14:46.000Z</time>
      </trkpt>
      <trkpt lat="46.86081" lon="-0.90471">
        <ele>206.01</ele>
        <time>2019-07-19T10:14:56.000Z</time>
      </trkpt>
      <trkpt lat="46.86092" lon="-0.9046">
        <ele>202.12</ele>
        <time>2019-07-19T10:15:06.000Z</time>
      </trkpt>
      <trkpt lat="46.86101" lon="-0.90452">
        <ele>201.92</ele>
        <time>2019-07-19T10:15:16.000Z</time>
      </trkpt>
      <trkpt lat="46.86111" lon="-0.90444">
        <ele>202.6</ele>
        <time>2019-07-19T10:15:26.000Z</time>
      </trkpt>
      <trkpt lat="46.86121" lon="-0.90431">
        <ele>196.99</ele>
        <time>2019-07-19T10:15:36.000Z</time>
      </trkpt>
      <trkpt lat="46.86128" lon="-0.90421">
        <ele>198.65</ele>
        <time>2019-07-19T10:15:48.000Z</time>
      </trkpt>
      <trkpt lat="46.86136" lon="-0.90428">
        <ele>204.56</ele>
        <time>2019-07-19T10:16:53.000Z</time>
      </trkpt>
      <trkpt lat="46.86139" lon="-0.90415">
        <ele>196.9</ele>
        <time>2019-07-19T10:19:09.000Z</time>
      </trkpt>
      <trkpt lat="46.86148" lon="-0.90407">
        <ele>196.67</ele>
        <time>2019-07-19T10:19:19.000Z</time>
      </trkpt>
      <trkpt lat="46.86159" lon="-0.90397">
        <ele>194.93</ele>
        <time>2019-07-19T10:19:29.000Z</time>
      </trkpt>
      <trkpt lat="46.86167" lon="-0.90388">
        <ele>193.11</ele>
        <time>2019-07-19T10:19:49.000Z</time>
      </trkpt>
      <trkpt lat="46.8618" lon="-0.90361">
        <ele>187.9</ele>
        <time>2019-07-19T10:19:59.000Z</time>
      </trkpt>
      <trkpt lat="46.86187" lon="-0.90344">
        <ele>185.94</ele>
        <time>2019-07-19T10:20:09.000Z</time>
      </trkpt>
      <trkpt lat="46.86196" lon="-0.90325">
        <ele>188.23</ele>
        <time>2019-07-19T10:20:19.000Z</time>
      </trkpt>
      <trkpt lat="46.86205" lon="-0.9031">
        <ele>189.91</ele>
        <time>2019-07-19T10:20:29.000Z</time>
      </trkpt>
      <trkpt lat="46.8621" lon="-0.90295">
        <ele>190.84</ele>
        <time>2019-07-19T10:20:39.000Z</time>
      </trkpt>
      <trkpt lat="46.8622" lon="-0.90278">
        <ele>195.67</ele>
        <time>2019-07-19T10:20:49.000Z</time>
      </trkpt>
      <trkpt lat="46.86226" lon="-0.90261">
        <ele>198.9</ele>
        <time>2019-07-19T10:20:59.000Z</time>
      </trkpt>
      <trkpt lat="46.8623" lon="-0.90248">
        <ele>200.68</ele>
        <time>2019-07-19T10:21:10.000Z</time>
      </trkpt>
      <trkpt lat="46.86233" lon="-0.9023">
        <ele>201.12</ele>
        <time>2019-07-19T10:21:20.000Z</time>
      </trkpt>
      <trkpt lat="46.86237" lon="-0.90212">
        <ele>200.73</ele>
        <time>2019-07-19T10:21:30.000Z</time>
      </trkpt>
      <trkpt lat="46.86239" lon="-0.90194">
        <ele>198.85</ele>
        <time>2019-07-19T10:21:40.000Z</time>
      </trkpt>
      <trkpt lat="46.86241" lon="-0.90178">
        <ele>197.67</ele>
        <time>2019-07-19T10:21:50.000Z</time>
      </trkpt>
      <trkpt lat="46.86243" lon="-0.90162">
        <ele>197.73</ele>
        <time>2019-07-19T10:22:00.000Z</time>
      </trkpt>
      <trkpt lat="46.86246" lon="-0.90144">
        <ele>198.85</ele>
        <time>2019-07-19T10:22:10.000Z</time>
      </trkpt>
      <trkpt lat="46.86246" lon="-0.9013">
        <ele>201.91</ele>
        <time>2019-07-19T10:22:20.000Z</time>
      </trkpt>
      <trkpt lat="46.86249" lon="-0.90114">
        <ele>201.91</ele>
        <time>2019-07-19T10:22:30.000Z</time>
      </trkpt>
      <trkpt lat="46.86252" lon="-0.90098">
        <ele>201.92</ele>
        <time>2019-07-19T10:22:40.000Z</time>
      </trkpt>
      <trkpt lat="46.86253" lon="-0.90083">
        <ele>205.66</ele>
        <time>2019-07-19T10:22:50.000Z</time>
      </trkpt>
      <trkpt lat="46.86254" lon="-0.90068">
        <ele>206.86</ele>
        <time>2019-07-19T10:23:00.000Z</time>
      </trkpt>
      <trkpt lat="46.8625" lon="-0.90056">
        <ele>205.98</ele>
        <time>2019-07-19T10:23:55.000Z</time>
      </trkpt>
      <trkpt lat="46.86248" lon="-0.90042">
        <ele>210.67</ele>
        <time>2019-07-19T10:25:42.000Z</time>
      </trkpt>
      <trkpt lat="46.86249" lon="-0.90029">
        <ele>212.4</ele>
        <time>2019-07-19T10:25:52.000Z</time>
      </trkpt>
      <trkpt lat="46.86252" lon="-0.90012">
        <ele>210.15</ele>
        <time>2019-07-19T10:26:02.000Z</time>
      </trkpt>
      <trkpt lat="46.86254" lon="-0.89998">
        <ele>211.87</ele>
        <time>2019-07-19T10:26:12.000Z</time>
      </trkpt>
      <trkpt lat="46.86254" lon="-0.89981">
        <ele>211.93</ele>
        <time>2019-07-19T10:26:22.000Z</time>
      </trkpt>
      <trkpt lat="46.86252" lon="-0.89966">
        <ele>210.73</ele>
        <time>2019-07-19T10:26:32.000Z</time>
      </trkpt>
      <trkpt lat="46.86252" lon="-0.89948">
        <ele>211.85</ele>
        <time>2019-07-19T10:26:42.000Z</time>
      </trkpt>
      <trkpt lat="46.86251" lon="-0.8993">
        <ele>209.17</ele>
        <time>2019-07-19T10:26:52.000Z</time>
      </trkpt>
      <trkpt lat="46.86246" lon="-0.89914">
        <ele>209.99</ele>
        <time>2019-07-19T10:27:02.000Z</time>
      </trkpt>
      <trkpt lat="46.86244" lon="-0.89891">
        <ele>202.44</ele>
        <time>2019-07-19T10:27:12.000Z</time>
      </trkpt>
      <trkpt lat="46.86239" lon="-0.89876">
        <ele>199.63</ele>
        <time>2019-07-19T10:27:22.000Z</time>
      </trkpt>
      <trkpt lat="46.86242" lon="-0.89861">
        <ele>205.58</ele>
        <time>2019-07-19T10:27:33.000Z</time>
      </trkpt>
      <trkpt lat="46.86238" lon="-0.89846">
        <ele>206.67</ele>
        <time>2019-07-19T10:27:43.000Z</time>
      </trkpt>
      <trkpt lat="46.86235" lon="-0.89832">
        <ele>214.21</ele>
        <time>2019-07-19T10:27:53.000Z</time>
      </trkpt>
      <trkpt lat="46.86231" lon="-0.89814">
        <ele>219.35</ele>
        <time>2019-07-19T10:28:03.000Z</time>
      </trkpt>
      <trkpt lat="46.86218" lon="-0.89802">
        <ele>217.6</ele>
        <time>2019-07-19T10:28:13.000Z</time>
      </trkpt>
      <trkpt lat="46.86219" lon="-0.89789">
        <ele>212.22</ele>
        <time>2019-07-19T10:28:26.000Z</time>
      </trkpt>
      <trkpt lat="46.86227" lon="-0.89782">
        <ele>214.17</ele>
        <time>2019-07-19T10:28:39.000Z</time>
      </trkpt>
      <trkpt lat="46.86239" lon="-0.89774">
        <ele>213.94</ele>
        <time>2019-07-19T10:28:49.000Z</time>
      </trkpt>
      <trkpt lat="46.86249" lon="-0.89774">
        <ele>215.03</ele>
        <time>2019-07-19T10:29:02.000Z</time>
      </trkpt>
      <trkpt lat="46.86258" lon="-0.89772">
        <ele>218.83</ele>
        <time>2019-07-19T10:29:13.000Z</time>
      </trkpt>
      <trkpt lat="46.86268" lon="-0.89772">
        <ele>216.79</ele>
        <time>2019-07-19T10:29:24.000Z</time>
      </trkpt>
      <trkpt lat="46.86282" lon="-0.89775">
        <ele>206.47</ele>
        <time>2019-07-19T10:29:34.000Z</time>
      </trkpt>
      <trkpt lat="46.86296" lon="-0.89776">
        <ele>201.55</ele>
        <time>2019-07-19T10:29:44.000Z</time>
      </trkpt>
      <trkpt lat="46.86307" lon="-0.89786">
        <ele>200.73</ele>
        <time>2019-07-19T10:29:54.000Z</time>
      </trkpt>
      <trkpt lat="46.86316" lon="-0.89792">
        <ele>199.17</ele>
        <time>2019-07-19T10:30:04.000Z</time>
      </trkpt>
      <trkpt lat="46.86327" lon="-0.89799">
        <ele>197.91</ele>
        <time>2019-07-19T10:30:14.000Z</time>
      </trkpt>
      <trkpt lat="46.8634" lon="-0.89804">
        <ele>198.9</ele>
        <time>2019-07-19T10:30:24.000Z</time>
      </trkpt>
      <trkpt lat="46.8635" lon="-0.8981">
        <ele>197.97</ele>
        <time>2019-07-19T10:30:34.000Z</time>
      </trkpt>
      <trkpt lat="46.86362" lon="-0.89815">
        <ele>198.11</ele>
        <time>2019-07-19T10:30:44.000Z</time>
      </trkpt>
      <trkpt lat="46.86374" lon="-0.89819">
        <ele>198.67</ele>
        <time>2019-07-19T10:30:54.000Z</time>
      </trkpt>
      <trkpt lat="46.86386" lon="-0.89819">
        <ele>200.67</ele>
        <time>2019-07-19T10:31:04.000Z</time>
      </trkpt>
      <trkpt lat="46.86397" lon="-0.89818">
        <ele>203.02</ele>
        <time>2019-07-19T10:31:14.000Z</time>
      </trkpt>
      <trkpt lat="46.86409" lon="-0.89816">
        <ele>201.93</ele>
        <time>2019-07-19T10:31:24.000Z</time>
      </trkpt>
      <trkpt lat="46.86417" lon="-0.89821">
        <ele>202.92</ele>
        <time>2019-07-19T10:32:01.000Z</time>
      </trkpt>
      <trkpt lat="46.86427" lon="-0.89827">
        <ele>195.24</ele>
        <time>2019-07-19T10:33:06.000Z</time>
      </trkpt>
      <trkpt lat="46.86436" lon="-0.89832">
        <ele>196.92</ele>
        <time>2019-07-19T10:33:16.000Z</time>
      </trkpt>
      <trkpt lat="46.86445" lon="-0.89838">
        <ele>195.12</ele>
        <time>2019-07-19T10:33:26.000Z</time>
      </trkpt>
      <trkpt lat="46.86454" lon="-0.89839">
        <ele>196.84</ele>
        <time>2019-07-19T10:33:36.000Z</time>
      </trkpt>
      <trkpt lat="46.86468" lon="-0.89845">
        <ele>195.94</ele>
        <time>2019-07-19T10:33:46.000Z</time>
      </trkpt>
      <trkpt lat="46.8648" lon="-0.89846">
        <ele>196.9</ele>
        <time>2019-07-19T10:33:56.000Z</time>
      </trkpt>
      <trkpt lat="46.86491" lon="-0.89849">
        <ele>197.92</ele>
        <time>2019-07-19T10:34:06.000Z</time>
      </trkpt>
      <trkpt lat="46.86502" lon="-0.89854">
        <ele>197.93</ele>
        <time>2019-07-19T10:34:16.000Z</time>
      </trkpt>
      <trkpt lat="46.86519" lon="-0.89856">
        <ele>196.9</ele>
        <time>2019-07-19T10:34:26.000Z</time>
      </trkpt>
      <trkpt lat="46.8653" lon="-0.8986">
        <ele>198.91</ele>
        <time>2019-07-19T10:34:36.000Z</time>
      </trkpt>
      <trkpt lat="46.86542" lon="-0.89867">
        <ele>197.92</ele>
        <time>2019-07-19T10:34:46.000Z</time>
      </trkpt>
      <trkpt lat="46.86553" lon="-0.89868">
        <ele>197.93</ele>
        <time>2019-07-19T10:34:56.000Z</time>
      </trkpt>
      <trkpt lat="46.86563" lon="-0.89867">
        <ele>198.68</ele>
        <time>2019-07-19T10:35:06.000Z</time>
      </trkpt>
      <trkpt lat="46.86578" lon="-0.89862">
        <ele>196.16</ele>
        <time>2019-07-19T10:35:16.000Z</time>
      </trkpt>
      <trkpt lat="46.86587" lon="-0.89846">
        <ele>195.9</ele>
        <time>2019-07-19T10:35:26.000Z</time>
      </trkpt>
      <trkpt lat="46.86592" lon="-0.8983">
        <ele>195.92</ele>
        <time>2019-07-19T10:35:36.000Z</time>
      </trkpt>
      <trkpt lat="46.86597" lon="-0.89813">
        <ele>195.92</ele>
        <time>2019-07-19T10:35:46.000Z</time>
      </trkpt>
      <trkpt lat="46.86601" lon="-0.898">
        <ele>193.92</ele>
        <time>2019-07-19T10:36:02.000Z</time>
      </trkpt>
      <trkpt lat="46.86606" lon="-0.89784">
        <ele>193.87</ele>
        <time>2019-07-19T10:36:12.000Z</time>
      </trkpt>
      <trkpt lat="46.86611" lon="-0.89769">
        <ele>194.91</ele>
        <time>2019-07-19T10:36:22.000Z</time>
      </trkpt>
      <trkpt lat="46.86617" lon="-0.89755">
        <ele>195.67</ele>
        <time>2019-07-19T10:36:32.000Z</time>
      </trkpt>
      <trkpt lat="46.86625" lon="-0.8974">
        <ele>194.17</ele>
        <time>2019-07-19T10:36:42.000Z</time>
      </trkpt>
      <trkpt lat="46.86632" lon="-0.89726">
        <ele>195.67</ele>
        <time>2019-07-19T10:36:52.000Z</time>
      </trkpt>
      <trkpt lat="46.8664" lon="-0.89715">
        <ele>195.92</ele>
        <time>2019-07-19T10:37:02.000Z</time>
      </trkpt>
      <trkpt lat="46.86648" lon="-0.89703">
        <ele>196.11</ele>
        <time>2019-07-19T10:37:12.000Z</time>
      </trkpt>
      <trkpt lat="46.86656" lon="-0.89694">
        <ele>197.68</ele>
        <time>2019-07-19T10:37:22.000Z</time>
      </trkpt>
      <trkpt lat="46.86664" lon="-0.89684">
        <ele>197.92</ele>
        <time>2019-07-19T10:37:32.000Z</time>
      </trkpt>
      <trkpt lat="46.86672" lon="-0.89673">
        <ele>198.92</ele>
        <time>2019-07-19T10:37:42.000Z</time>
      </trkpt>
      <trkpt lat="46.86679" lon="-0.89663">
        <ele>198.92</ele>
        <time>2019-07-19T10:37:52.000Z</time>
      </trkpt>
      <trkpt lat="46.86686" lon="-0.8965">
        <ele>198.92</ele>
        <time>2019-07-19T10:38:02.000Z</time>
      </trkpt>
      <trkpt lat="46.86693" lon="-0.8964">
        <ele>200.9</ele>
        <time>2019-07-19T10:38:12.000Z</time>
      </trkpt>
      <trkpt lat="46.86701" lon="-0.89629">
        <ele>201.92</ele>
        <time>2019-07-19T10:38:22.000Z</time>
      </trkpt>
      <trkpt lat="46.86708" lon="-0.89619">
        <ele>201.92</ele>
        <time>2019-07-19T10:38:33.000Z</time>
      </trkpt>
      <trkpt lat="46.86716" lon="-0.89608">
        <ele>202.86</ele>
        <time>2019-07-19T10:38:43.000Z</time>
      </trkpt>
      <trkpt lat="46.86723" lon="-0.89597">
        <ele>201.93</ele>
        <time>2019-07-19T10:38:53.000Z</time>
      </trkpt>
      <trkpt lat="46.86732" lon="-0.89588">
        <ele>201.92</ele>
        <time>2019-07-19T10:39:03.000Z</time>
      </trkpt>
      <trkpt lat="46.86742" lon="-0.89582">
        <ele>201.91</ele>
        <time>2019-07-19T10:39:13.000Z</time>
      </trkpt>
      <trkpt lat="46.86743" lon="-0.89581">
        <ele>202.92</ele>
        <time>2019-07-19T10:40:08.000Z</time>
      </trkpt>
    </trkseg>
  </trk>
</gpx>